createdAt,value
2018-10-17T00:00:25.374Z,14.05
2018-10-17T00:01:05.963Z,14.07
2018-10-17T00:01:46.496Z,14.08
2018-10-17T00:02:27.086Z,14.07
2018-10-17T00:03:07.771Z,14.07
2018-10-17T00:03:48.331Z,14
2018-10-17T00:04:28.961Z,14.1
2018-10-17T00:05:09.590Z,14.03
2018-10-17T00:05:50.023Z,14.07
2018-10-17T00:06:30.578Z,14.03
2018-10-17T00:07:12.917Z,14.05
2018-10-17T00:07:53.420Z,13.99
2018-10-17T00:08:33.990Z,14.05
2018-10-17T00:09:14.544Z,14
2018-10-17T00:09:55.128Z,14.03
2018-10-17T00:10:35.674Z,14.05
2018-10-17T00:11:16.250Z,13.97
2018-10-17T00:11:56.807Z,13.95
2018-10-17T00:12:37.371Z,13.87
2018-10-17T00:13:17.916Z,13.93
2018-10-17T00:13:58.488Z,13.96
2018-10-17T00:14:39.082Z,13.89
2018-10-17T00:15:19.638Z,13.95
2018-10-17T00:16:00.195Z,13.9
2018-10-17T00:16:40.767Z,13.93
2018-10-17T00:17:21.333Z,13.89
2018-10-17T00:18:01.881Z,13.87
2018-10-17T00:18:42.428Z,13.92
2018-10-17T00:19:23.018Z,13.92
2018-10-17T00:20:03.558Z,13.92
2018-10-17T00:20:44.107Z,13.87
2018-10-17T00:21:24.681Z,13.9
2018-10-17T00:22:05.239Z,13.85
2018-10-17T00:22:45.827Z,13.93
2018-10-17T00:23:26.431Z,13.87
2018-10-17T00:24:07.053Z,13.93
2018-10-17T00:24:47.603Z,13.96
2018-10-17T00:25:28.185Z,13.87
2018-10-17T00:26:08.752Z,13.9
2018-10-17T00:26:49.330Z,13.89
2018-10-17T00:27:29.889Z,13.89
2018-10-17T00:28:10.484Z,13.86
2018-10-17T00:28:51.146Z,13.81
2018-10-17T00:29:31.663Z,13.86
2018-10-17T00:30:12.214Z,13.81
2018-10-17T00:30:52.837Z,13.85
2018-10-17T00:31:33.377Z,13.79
2018-10-17T00:32:13.952Z,13.86
2018-10-17T00:32:54.528Z,13.79
2018-10-17T00:33:35.087Z,13.79
2018-10-17T00:34:15.701Z,13.83
2018-10-17T00:34:56.297Z,13.85
2018-10-17T00:35:36.869Z,13.81
2018-10-17T00:36:17.448Z,13.77
2018-10-17T00:36:58.041Z,13.85
2018-10-17T00:37:38.613Z,13.83
2018-10-17T00:38:19.180Z,13.83
2018-10-17T00:38:59.754Z,13.78
2018-10-17T00:39:40.330Z,13.83
2018-10-17T00:40:20.954Z,13.81
2018-10-17T00:41:01.492Z,13.83
2018-10-17T00:41:42.030Z,13.77
2018-10-17T00:42:22.609Z,13.72
2018-10-17T00:43:03.235Z,13.75
2018-10-17T00:43:43.773Z,13.78
2018-10-17T00:44:24.384Z,13.75
2018-10-17T00:45:04.974Z,13.77
2018-10-17T00:45:45.527Z,13.77
2018-10-17T00:46:26.086Z,13.79
2018-10-17T00:47:06.731Z,13.77
2018-10-17T00:47:47.210Z,13.71
2018-10-17T00:48:27.764Z,13.7
2018-10-17T00:49:08.401Z,13.68
2018-10-17T00:49:48.886Z,13.68
2018-10-17T00:50:29.463Z,13.74
2018-10-17T00:51:10.114Z,13.71
2018-10-17T00:51:50.698Z,13.7
2018-10-17T00:52:31.272Z,13.71
2018-10-17T00:53:11.902Z,13.67
2018-10-17T00:53:52.395Z,13.6
2018-10-17T00:54:32.971Z,13.59
2018-10-17T00:55:13.595Z,13.62
2018-10-17T00:55:54.123Z,13.68
2018-10-17T00:56:34.673Z,13.62
2018-10-17T00:57:15.242Z,13.59
2018-10-17T00:57:55.793Z,13.68
2018-10-17T00:58:36.355Z,13.6
2018-10-17T00:59:16.905Z,13.6
2018-10-17T00:59:57.469Z,13.54
2018-10-17T01:00:38.105Z,13.59
2018-10-17T01:01:18.680Z,13.62
2018-10-17T01:01:59.232Z,13.57
2018-10-17T01:02:39.798Z,13.62
2018-10-17T01:03:20.376Z,13.56
2018-10-17T01:04:00.949Z,13.59
2018-10-17T01:04:41.537Z,13.59
2018-10-17T01:05:22.135Z,13.59
2018-10-17T01:06:02.720Z,13.54
2018-10-17T01:06:43.326Z,13.53
2018-10-17T01:07:23.850Z,13.53
2018-10-17T01:08:04.413Z,13.54
2018-10-17T01:08:44.965Z,13.47
2018-10-17T01:09:25.552Z,13.41
2018-10-17T01:10:06.107Z,13.47
2018-10-17T01:10:46.654Z,13.5
2018-10-17T01:11:27.216Z,13.47
2018-10-17T01:12:07.798Z,13.47
2018-10-17T01:12:48.426Z,13.52
2018-10-17T01:13:29.000Z,13.47
2018-10-17T01:14:09.565Z,13.5
2018-10-17T01:14:50.129Z,13.5
2018-10-17T01:15:30.699Z,13.52
2018-10-17T01:16:11.266Z,13.47
2018-10-17T01:16:51.899Z,13.39
2018-10-17T01:17:32.434Z,13.5
2018-10-17T01:18:13.018Z,13.44
2018-10-17T01:18:53.631Z,13.39
2018-10-17T01:19:34.199Z,13.41
2018-10-17T01:20:14.770Z,13.41
2018-10-17T01:20:55.338Z,13.3
2018-10-17T01:21:35.924Z,13.47
2018-10-17T01:22:16.469Z,13.46
2018-10-17T01:22:57.114Z,13.46
2018-10-17T01:23:37.649Z,13.37
2018-10-17T01:24:18.199Z,13.39
2018-10-17T01:24:58.788Z,13.39
2018-10-17T01:25:39.298Z,13.28
2018-10-17T01:26:19.858Z,13.37
2018-10-17T01:27:00.421Z,13.39
2018-10-17T01:27:40.999Z,13.35
2018-10-17T01:28:21.565Z,13.41
2018-10-17T01:29:02.174Z,13.41
2018-10-17T01:29:42.698Z,13.31
2018-10-17T01:30:23.282Z,13.46
2018-10-17T01:31:03.882Z,13.37
2018-10-17T01:31:44.442Z,13.41
2018-10-17T01:32:25.003Z,13.37
2018-10-17T01:33:05.577Z,13.39
2018-10-17T01:33:46.171Z,13.41
2018-10-17T01:34:26.755Z,13.38
2018-10-17T01:35:07.380Z,13.41
2018-10-17T01:35:47.875Z,13.31
2018-10-17T01:36:28.441Z,13.37
2018-10-17T01:37:09.105Z,13.35
2018-10-17T01:37:49.614Z,13.38
2018-10-17T01:38:30.207Z,13.39
2018-10-17T01:39:10.783Z,13.33
2018-10-17T01:39:51.349Z,13.38
2018-10-17T01:40:31.903Z,13.37
2018-10-17T01:41:12.501Z,13.39
2018-10-17T01:41:53.028Z,13.41
2018-10-17T01:42:33.613Z,13.35
2018-10-17T01:43:14.227Z,13.38
2018-10-17T01:43:54.722Z,13.37
2018-10-17T01:44:35.316Z,13.37
2018-10-17T01:45:15.869Z,13.35
2018-10-17T01:45:56.426Z,13.38
2018-10-17T01:46:37.794Z,13.38
2018-10-17T01:47:18.430Z,13.49
2018-10-17T01:47:59.047Z,13.42
2018-10-17T01:48:39.615Z,13.31
2018-10-17T01:49:20.194Z,13.39
2018-10-17T01:50:00.763Z,13.38
2018-10-17T01:50:41.314Z,13.42
2018-10-17T01:51:21.920Z,13.41
2018-10-17T01:52:02.496Z,13.35
2018-10-17T01:52:43.051Z,13.37
2018-10-17T01:53:23.611Z,13.33
2018-10-17T01:54:04.174Z,13.37
2018-10-17T01:54:44.767Z,13.37
2018-10-17T01:55:25.322Z,13.38
2018-10-17T01:56:05.923Z,13.39
2018-10-17T01:56:46.516Z,13.37
2018-10-17T01:57:27.104Z,13.42
2018-10-17T01:58:07.673Z,13.39
2018-10-17T01:58:48.230Z,13.33
2018-10-17T01:59:28.772Z,13.46
2018-10-17T02:00:09.333Z,13.3
2018-10-17T02:00:49.974Z,13.28
2018-10-17T02:01:30.520Z,13.31
2018-10-17T02:02:11.074Z,13.22
2018-10-17T02:02:51.677Z,13.2
2018-10-17T02:03:32.287Z,13.2
2018-10-17T02:04:12.851Z,13.2
2018-10-17T02:04:53.418Z,13.2
2018-10-17T02:05:33.983Z,13.25
2018-10-17T02:06:14.560Z,13.2
2018-10-17T02:06:55.215Z,13.2
2018-10-17T02:07:35.742Z,13.11
2018-10-17T02:08:16.321Z,13.2
2018-10-17T02:08:56.883Z,13.22
2018-10-17T02:09:37.452Z,13.18
2018-10-17T02:10:18.028Z,13.15
2018-10-17T02:10:58.670Z,13.23
2018-10-17T02:11:39.201Z,13.13
2018-10-17T02:12:19.770Z,13.2
2018-10-17T02:13:00.396Z,13.15
2018-10-17T02:13:40.912Z,13.16
2018-10-17T02:14:21.469Z,13.22
2018-10-17T02:15:02.046Z,13.11
2018-10-17T02:15:42.598Z,13.12
2018-10-17T02:16:23.191Z,13.15
2018-10-17T02:17:03.800Z,13.11
2018-10-17T02:17:44.303Z,13.18
2018-10-17T02:18:24.894Z,13.23
2018-10-17T02:19:05.489Z,13.11
2018-10-17T02:19:46.003Z,13.18
2018-10-17T02:20:26.578Z,13.08
2018-10-17T02:21:07.136Z,13.27
2018-10-17T02:21:47.720Z,13.13
2018-10-17T02:22:28.303Z,13.23
2018-10-17T02:23:08.958Z,13.23
2018-10-17T02:23:49.412Z,13.2
2018-10-17T02:24:29.983Z,13.2
2018-10-17T02:25:10.709Z,13.27
2018-10-17T02:25:51.165Z,13.18
2018-10-17T02:26:31.724Z,13.28
2018-10-17T02:27:12.268Z,13.22
2018-10-17T02:27:52.835Z,13.11
2018-10-17T02:28:33.419Z,13.19
2018-10-17T02:29:14.132Z,13.19
2018-10-17T02:29:54.606Z,13.23
2018-10-17T02:30:35.141Z,13.18
2018-10-17T02:31:15.799Z,13.16
2018-10-17T02:31:56.252Z,13.13
2018-10-17T02:32:36.801Z,13.05
2018-10-17T02:33:17.352Z,13.13
2018-10-17T02:33:57.914Z,13.04
2018-10-17T02:34:38.484Z,13.16
2018-10-17T02:35:19.227Z,13.16
2018-10-17T02:35:59.635Z,13.12
2018-10-17T02:36:40.242Z,13.05
2018-10-17T02:37:20.783Z,13.12
2018-10-17T02:38:01.356Z,13.09
2018-10-17T02:38:41.969Z,13.12
2018-10-17T02:39:22.553Z,13.09
2018-10-17T02:40:03.089Z,13.08
2018-10-17T02:40:43.717Z,13.05
2018-10-17T02:41:24.297Z,13.08
2018-10-17T02:42:04.872Z,13.03
2018-10-17T02:42:45.459Z,13.03
2018-10-17T02:43:26.028Z,13.08
2018-10-17T02:44:06.600Z,13.08
2018-10-17T02:44:47.175Z,13.01
2018-10-17T02:45:27.867Z,13.05
2018-10-17T02:46:08.432Z,13.05
2018-10-17T02:46:49.002Z,13.03
2018-10-17T02:47:29.605Z,13.03
2018-10-17T02:48:10.163Z,13.01
2018-10-17T02:48:50.787Z,13.01
2018-10-17T02:49:31.330Z,13.03
2018-10-17T02:50:11.916Z,13.03
2018-10-17T02:50:52.526Z,13.01
2018-10-17T02:51:33.078Z,13.08
2018-10-17T02:52:13.647Z,13.04
2018-10-17T02:52:54.208Z,13.01
2018-10-17T02:53:34.765Z,13.05
2018-10-17T02:54:15.346Z,13.04
2018-10-17T02:54:55.956Z,13.04
2018-10-17T02:55:36.498Z,13.04
2018-10-17T02:56:17.068Z,13.05
2018-10-17T02:56:57.657Z,13.08
2018-10-17T02:57:38.261Z,13.08
2018-10-17T02:58:18.807Z,13.01
2018-10-17T02:58:59.410Z,13.01
2018-10-17T02:59:39.942Z,13.04
2018-10-17T03:00:20.507Z,13.05
2018-10-17T03:01:01.133Z,12.97
2018-10-17T03:01:41.670Z,13
2018-10-17T03:02:22.234Z,12.95
2018-10-17T03:03:02.821Z,12.95
2018-10-17T03:03:43.377Z,12.93
2018-10-17T03:04:23.959Z,13
2018-10-17T03:05:04.651Z,12.86
2018-10-17T03:05:45.101Z,12.93
2018-10-17T03:06:25.665Z,12.98
2018-10-17T03:07:06.327Z,12.94
2018-10-17T03:07:46.834Z,12.93
2018-10-17T03:08:27.400Z,12.97
2018-10-17T03:09:07.985Z,12.95
2018-10-17T03:09:48.552Z,12.9
2018-10-17T03:10:29.122Z,12.83
2018-10-17T03:11:09.713Z,12.95
2018-10-17T03:11:50.271Z,12.94
2018-10-17T03:12:30.839Z,12.9
2018-10-17T03:13:11.454Z,12.95
2018-10-17T03:13:51.951Z,12.94
2018-10-17T03:14:32.508Z,12.87
2018-10-17T03:15:13.084Z,12.97
2018-10-17T03:15:53.642Z,12.87
2018-10-17T03:16:34.260Z,12.87
2018-10-17T03:17:14.904Z,12.8
2018-10-17T03:17:55.386Z,12.85
2018-10-17T03:18:35.950Z,12.79
2018-10-17T03:19:16.648Z,12.91
2018-10-17T03:19:57.112Z,12.9
2018-10-17T03:20:37.699Z,12.87
2018-10-17T03:21:18.289Z,12.83
2018-10-17T03:21:58.871Z,12.79
2018-10-17T03:22:39.417Z,12.9
2018-10-17T03:23:20.018Z,12.86
2018-10-17T03:24:00.564Z,12.85
2018-10-17T03:24:41.107Z,12.85
2018-10-17T03:25:21.702Z,12.82
2018-10-17T03:26:02.321Z,12.82
2018-10-17T03:26:42.872Z,12.82
2018-10-17T03:27:23.447Z,12.83
2018-10-17T03:28:04.052Z,12.82
2018-10-17T03:28:44.524Z,12.85
2018-10-17T03:29:25.109Z,12.86
2018-10-17T03:30:05.712Z,12.86
2018-10-17T03:30:46.289Z,12.78
2018-10-17T03:31:27.077Z,12.76
2018-10-17T03:32:07.410Z,12.75
2018-10-17T03:32:47.990Z,12.82
2018-10-17T03:33:28.568Z,12.7
2018-10-17T03:34:09.146Z,12.76
2018-10-17T03:34:49.711Z,12.72
2018-10-17T03:35:30.281Z,12.73
2018-10-17T03:36:10.846Z,12.85
2018-10-17T03:36:51.494Z,12.7
2018-10-17T03:37:32.022Z,12.72
2018-10-17T03:38:12.605Z,12.82
2018-10-17T03:38:53.176Z,12.82
2018-10-17T03:39:33.808Z,12.82
2018-10-17T03:40:14.320Z,12.79
2018-10-17T03:40:54.961Z,12.8
2018-10-17T03:41:35.477Z,12.83
2018-10-17T03:42:16.038Z,12.82
2018-10-17T03:42:56.660Z,12.86
2018-10-17T03:43:37.152Z,12.82
2018-10-17T03:44:17.725Z,12.75
2018-10-17T03:44:58.307Z,12.75
2018-10-17T03:45:38.852Z,12.75
2018-10-17T03:46:19.432Z,12.76
2018-10-17T03:47:00.026Z,12.75
2018-10-17T03:47:40.543Z,12.79
2018-10-17T03:48:21.090Z,12.72
2018-10-17T03:49:01.770Z,12.75
2018-10-17T03:49:42.278Z,12.73
2018-10-17T03:50:22.846Z,12.82
2018-10-17T03:51:03.398Z,12.72
2018-10-17T03:51:43.947Z,12.8
2018-10-17T03:52:24.515Z,12.73
2018-10-17T03:53:05.138Z,12.79
2018-10-17T03:53:45.653Z,12.73
2018-10-17T03:54:26.250Z,12.73
2018-10-17T03:55:06.871Z,12.75
2018-10-17T03:55:47.408Z,12.72
2018-10-17T03:56:27.975Z,12.73
2018-10-17T03:57:08.548Z,12.72
2018-10-17T03:57:49.107Z,12.73
2018-10-17T03:58:29.672Z,12.76
2018-10-17T03:59:10.307Z,12.72
2018-10-17T03:59:50.799Z,12.75
2018-10-17T04:00:31.369Z,12.78
2018-10-17T04:01:12.024Z,12.76
2018-10-17T04:01:52.479Z,12.75
2018-10-17T04:02:33.031Z,12.79
2018-10-17T04:03:13.654Z,12.78
2018-10-17T04:03:54.138Z,12.73
2018-10-17T04:04:34.709Z,12.73
2018-10-17T04:05:15.367Z,12.7
2018-10-17T04:05:55.857Z,12.6
2018-10-17T04:06:36.423Z,12.62
2018-10-17T04:07:17.123Z,12.58
2018-10-17T04:07:57.539Z,12.68
2018-10-17T04:08:38.125Z,12.61
2018-10-17T04:09:18.690Z,12.62
2018-10-17T04:09:59.316Z,12.67
2018-10-17T04:10:39.880Z,12.62
2018-10-17T04:11:20.445Z,12.58
2018-10-17T04:12:01.016Z,12.54
2018-10-17T04:12:41.591Z,12.58
2018-10-17T04:13:22.152Z,12.6
2018-10-17T04:14:02.713Z,12.7
2018-10-17T04:14:43.284Z,12.64
2018-10-17T04:15:23.823Z,12.64
2018-10-17T04:16:04.392Z,12.58
2018-10-17T04:16:44.972Z,12.54
2018-10-17T04:17:25.535Z,12.53
2018-10-17T04:18:06.105Z,12.5
2018-10-17T04:18:46.659Z,12.55
2018-10-17T04:19:27.238Z,12.55
2018-10-17T04:20:07.883Z,12.53
2018-10-17T04:20:48.704Z,12.53
2018-10-17T04:21:29.190Z,12.57
2018-10-17T04:22:09.741Z,12.57
2018-10-17T04:22:50.288Z,12.57
2018-10-17T04:23:30.841Z,12.57
2018-10-17T04:24:11.408Z,12.54
2018-10-17T04:24:51.957Z,12.61
2018-10-17T04:25:32.523Z,12.57
2018-10-17T04:26:13.093Z,12.58
2018-10-17T04:26:53.685Z,12.64
2018-10-17T04:27:34.253Z,12.64
2018-10-17T04:28:14.816Z,12.57
2018-10-17T04:28:55.400Z,12.62
2018-10-17T04:29:35.923Z,12.64
2018-10-17T04:30:16.496Z,12.53
2018-10-17T04:30:57.157Z,12.57
2018-10-17T04:31:37.669Z,12.57
2018-10-17T04:32:18.225Z,12.72
2018-10-17T04:32:58.791Z,12.72
2018-10-17T04:33:39.353Z,12.76
2018-10-17T04:34:19.882Z,12.78
2018-10-17T04:35:00.513Z,12.73
2018-10-17T04:35:41.104Z,12.76
2018-10-17T04:36:21.786Z,12.7
2018-10-17T04:37:02.280Z,12.73
2018-10-17T04:37:42.827Z,12.76
2018-10-17T04:38:23.388Z,12.75
2018-10-17T04:39:03.938Z,12.8
2018-10-17T04:39:44.507Z,12.76
2018-10-17T04:40:25.065Z,12.73
2018-10-17T04:41:05.745Z,12.76
2018-10-17T04:41:46.223Z,12.73
2018-10-17T04:42:26.794Z,12.76
2018-10-17T04:43:07.370Z,12.78
2018-10-17T04:43:47.971Z,12.73
2018-10-17T04:44:28.527Z,12.6
2018-10-17T04:45:09.103Z,12.73
2018-10-17T04:45:49.651Z,12.73
2018-10-17T04:46:30.201Z,12.55
2018-10-17T04:47:10.835Z,12.61
2018-10-17T04:47:51.303Z,12.6
2018-10-17T04:48:31.862Z,12.6
2018-10-17T04:49:12.509Z,12.57
2018-10-17T04:49:53.017Z,12.61
2018-10-17T04:50:33.585Z,12.62
2018-10-17T04:51:14.145Z,12.6
2018-10-17T04:51:54.708Z,12.62
2018-10-17T04:52:35.264Z,12.61
2018-10-17T04:53:15.907Z,12.57
2018-10-17T04:53:56.401Z,12.61
2018-10-17T04:54:36.956Z,12.64
2018-10-17T04:55:17.581Z,12.55
2018-10-17T04:55:58.096Z,12.58
2018-10-17T04:56:38.673Z,12.53
2018-10-17T04:57:19.218Z,12.55
2018-10-17T04:57:59.792Z,12.47
2018-10-17T04:58:40.350Z,12.49
2018-10-17T04:59:20.920Z,12.5
2018-10-17T05:00:01.472Z,12.45
2018-10-17T05:00:42.024Z,12.49
2018-10-17T05:01:22.593Z,12.46
2018-10-17T05:02:03.216Z,12.5
2018-10-17T05:02:43.793Z,12.46
2018-10-17T05:03:24.372Z,12.47
2018-10-17T05:04:04.952Z,12.53
2018-10-17T05:04:45.617Z,12.45
2018-10-17T05:05:26.103Z,12.42
2018-10-17T05:06:06.659Z,12.46
2018-10-17T05:06:47.271Z,12.45
2018-10-17T05:07:27.761Z,12.46
2018-10-17T05:08:08.366Z,12.5
2018-10-17T05:08:48.933Z,12.55
2018-10-17T05:09:29.491Z,12.58
2018-10-17T05:10:10.055Z,12.49
2018-10-17T05:10:50.626Z,12.54
2018-10-17T05:11:31.200Z,12.5
2018-10-17T05:12:11.778Z,12.53
2018-10-17T05:12:52.379Z,12.49
2018-10-17T05:13:32.899Z,12.45
2018-10-17T05:14:13.476Z,12.49
2018-10-17T05:14:54.030Z,12.53
2018-10-17T05:15:34.601Z,12.47
2018-10-17T05:16:15.163Z,12.5
2018-10-17T05:16:55.770Z,12.58
2018-10-17T05:17:36.324Z,12.45
2018-10-17T05:18:16.878Z,12.55
2018-10-17T05:18:57.427Z,12.53
2018-10-17T05:19:37.973Z,12.54
2018-10-17T05:20:18.534Z,12.49
2018-10-17T05:20:59.095Z,12.53
2018-10-17T05:21:39.683Z,12.53
2018-10-17T05:22:20.259Z,12.53
2018-10-17T05:23:00.841Z,12.46
2018-10-17T05:23:41.389Z,12.46
2018-10-17T05:24:21.948Z,12.54
2018-10-17T05:25:02.579Z,12.4
2018-10-17T05:25:43.080Z,12.47
2018-10-17T05:26:23.656Z,12.36
2018-10-17T05:27:04.263Z,12.46
2018-10-17T05:27:44.866Z,12.35
2018-10-17T05:28:25.416Z,12.35
2018-10-17T05:29:06.058Z,12.42
2018-10-17T05:29:46.591Z,12.35
2018-10-17T05:30:27.105Z,12.36
2018-10-17T05:31:07.749Z,12.29
2018-10-17T05:31:48.237Z,12.36
2018-10-17T05:32:28.803Z,12.31
2018-10-17T05:33:09.379Z,12.32
2018-10-17T05:33:49.950Z,12.31
2018-10-17T05:34:30.500Z,12.31
2018-10-17T05:35:11.085Z,12.29
2018-10-17T05:35:51.602Z,12.35
2018-10-17T05:36:32.176Z,12.24
2018-10-17T05:37:12.787Z,12.28
2018-10-17T05:37:53.552Z,12.28
2018-10-17T05:38:33.903Z,12.37
2018-10-17T05:39:14.465Z,12.37
2018-10-17T05:39:55.033Z,12.29
2018-10-17T05:40:35.580Z,12.32
2018-10-17T05:41:16.160Z,12.32
2018-10-17T05:41:56.686Z,12.36
2018-10-17T05:42:37.237Z,12.35
2018-10-17T05:43:17.846Z,12.36
2018-10-17T05:43:58.388Z,12.39
2018-10-17T05:44:38.941Z,12.4
2018-10-17T05:45:19.498Z,12.35
2018-10-17T05:46:00.102Z,12.39
2018-10-17T05:46:40.716Z,12.37
2018-10-17T05:47:21.301Z,12.46
2018-10-17T05:48:01.864Z,12.49
2018-10-17T05:48:42.427Z,12.39
2018-10-17T05:49:23.001Z,12.4
2018-10-17T05:50:03.552Z,12.42
2018-10-17T05:50:44.111Z,12.39
2018-10-17T05:51:24.688Z,12.36
2018-10-17T05:52:05.237Z,12.43
2018-10-17T05:52:46.311Z,12.46
2018-10-17T05:53:27.128Z,12.49
2018-10-17T05:54:07.700Z,12.42
2018-10-17T05:54:48.532Z,12.42
2018-10-17T05:55:29.113Z,12.46
2018-10-17T05:56:09.776Z,12.46
2018-10-17T05:56:50.372Z,12.46
2018-10-17T05:57:30.968Z,12.49
2018-10-17T05:58:11.556Z,12.46
2018-10-17T05:58:52.168Z,12.42
2018-10-17T05:59:32.728Z,12.46
2018-10-17T06:00:13.348Z,12.46
2018-10-17T06:00:53.939Z,12.4
2018-10-17T06:01:34.663Z,12.5
2018-10-17T06:02:15.703Z,12.49
2018-10-17T06:02:56.264Z,12.46
2018-10-17T06:03:37.113Z,12.53
2018-10-17T06:04:18.082Z,12.49
2018-10-17T06:04:58.950Z,12.47
2018-10-17T06:05:39.795Z,12.54
2018-10-17T06:06:20.656Z,12.47
2018-10-17T06:07:02.345Z,12.54
2018-10-17T06:07:42.872Z,12.45
2018-10-17T06:08:23.495Z,12.45
2018-10-17T06:09:04.067Z,12.49
2018-10-17T06:09:44.688Z,12.49
2018-10-17T06:10:25.337Z,12.53
2018-10-17T06:11:05.881Z,12.53
2018-10-17T06:11:46.685Z,12.47
2018-10-17T06:12:28.041Z,12.53
2018-10-17T06:13:08.647Z,12.53
2018-10-17T06:13:49.397Z,12.54
2018-10-17T06:14:29.950Z,12.49
2018-10-17T06:15:10.590Z,12.5
2018-10-17T06:15:51.164Z,12.6
2018-10-17T06:16:31.725Z,12.76
2018-10-17T06:17:12.363Z,12.95
2018-10-17T06:17:52.907Z,13.08
2018-10-17T06:18:33.474Z,13.22
2018-10-17T06:19:14.159Z,13.44
2018-10-17T06:19:54.585Z,13.44
2018-10-17T06:20:35.163Z,13.67
2018-10-17T06:21:15.680Z,13.71
2018-10-17T06:21:56.235Z,13.92
2018-10-17T06:22:36.808Z,13.97
2018-10-17T06:23:17.393Z,14.07
2018-10-17T06:23:57.948Z,14.14
2018-10-17T06:24:38.522Z,14.33
2018-10-17T06:25:19.050Z,14.3
2018-10-17T06:25:59.622Z,14.41
2018-10-17T06:26:40.218Z,14.45
2018-10-17T06:27:20.806Z,14.41
2018-10-17T06:28:01.392Z,14.58
2018-10-17T06:28:41.998Z,14.5
2018-10-17T06:29:22.579Z,14.6
2018-10-17T06:30:03.150Z,14.65
2018-10-17T06:30:43.724Z,14.68
2018-10-17T06:31:24.256Z,14.65
2018-10-17T06:32:04.812Z,14.73
2018-10-17T06:32:45.374Z,14.69
2018-10-17T06:33:25.937Z,14.78
2018-10-17T06:34:06.607Z,14.88
2018-10-17T06:34:47.138Z,14.88
2018-10-17T06:35:27.629Z,14.92
2018-10-17T06:36:08.227Z,15
2018-10-17T06:36:48.834Z,15.03
2018-10-17T06:37:29.435Z,14.92
2018-10-17T06:38:10.019Z,14.96
2018-10-17T06:38:50.611Z,15.02
2018-10-17T06:39:31.167Z,15.03
2018-10-17T06:40:11.734Z,15.14
2018-10-17T06:40:52.354Z,15.06
2018-10-17T06:41:32.873Z,15.27
2018-10-17T06:42:13.440Z,15.27
2018-10-17T06:42:54.065Z,15.28
2018-10-17T06:43:34.699Z,15.25
2018-10-17T06:44:15.138Z,15.35
2018-10-17T06:44:55.814Z,15.35
2018-10-17T06:45:36.402Z,15.47
2018-10-17T06:46:16.965Z,15.54
2018-10-17T06:46:57.540Z,15.54
2018-10-17T06:47:38.084Z,15.55
2018-10-17T06:48:18.634Z,15.65
2018-10-17T06:48:59.497Z,15.72
2018-10-17T06:49:40.739Z,15.77
2018-10-17T06:50:23.182Z,15.79
2018-10-17T06:51:05.126Z,15.8
2018-10-17T06:51:47.366Z,15.86
2018-10-17T06:52:28.964Z,15.91
2018-10-17T06:53:13.203Z,15.97
2018-10-17T06:53:55.298Z,15.98
2018-10-17T06:54:36.516Z,15.84
2018-10-17T06:55:18.453Z,15.91
2018-10-17T06:56:00.758Z,15.91
2018-10-17T06:56:44.104Z,15.94
2018-10-17T06:57:25.387Z,15.98
2018-10-17T06:58:07.764Z,15.94
2018-10-17T06:58:49.067Z,15.97
2018-10-17T06:59:30.290Z,15.95
2018-10-17T07:00:11.553Z,15.97
2018-10-17T07:00:52.847Z,16.01
2018-10-17T07:01:35.237Z,15.95
2018-10-17T07:02:20.902Z,15.98
2018-10-17T07:03:02.143Z,16.01
2018-10-17T07:03:43.398Z,16.04
2018-10-17T07:04:24.436Z,16
2018-10-17T07:05:05.557Z,16.02
2018-10-17T07:05:46.078Z,16.02
2018-10-17T07:06:26.608Z,15.97
2018-10-17T07:07:07.227Z,15.94
2018-10-17T07:07:47.741Z,16.04
2018-10-17T07:08:28.330Z,16.01
2018-10-17T07:09:08.893Z,15.97
2018-10-17T07:09:49.611Z,15.97
2018-10-17T07:10:30.207Z,15.94
2018-10-17T07:11:10.852Z,16.01
2018-10-17T07:11:51.356Z,16.05
2018-10-17T07:12:31.918Z,16.05
2018-10-17T07:13:12.535Z,16.04
2018-10-17T07:13:53.035Z,16.04
2018-10-17T07:14:33.614Z,16.02
2018-10-17T07:15:14.241Z,16.04
2018-10-17T07:15:54.819Z,16.09
2018-10-17T07:16:36.176Z,16.15
2018-10-17T07:17:17.244Z,16.23
2018-10-17T07:17:58.104Z,16.24
2018-10-17T07:18:38.848Z,16.24
2018-10-17T07:19:19.893Z,16.32
2018-10-17T07:20:00.807Z,16.35
2018-10-17T07:20:41.885Z,16.41
2018-10-17T07:21:22.856Z,16.42
2018-10-17T07:22:03.793Z,16.46
2018-10-17T07:22:44.777Z,16.47
2018-10-17T07:23:25.673Z,16.46
2018-10-17T07:24:06.616Z,16.46
2018-10-17T07:24:47.207Z,16.39
2018-10-17T07:25:27.789Z,16.31
2018-10-17T07:26:08.372Z,16.2
2018-10-17T07:26:48.949Z,16.02
2018-10-17T07:27:29.511Z,16.01
2018-10-17T07:28:10.085Z,15.86
2018-10-17T07:28:50.767Z,15.72
2018-10-17T07:29:31.353Z,15.62
2018-10-17T07:30:11.832Z,15.59
2018-10-17T07:30:52.451Z,15.44
2018-10-17T07:31:32.934Z,15.46
2018-10-17T07:32:13.500Z,15.27
2018-10-17T07:32:54.049Z,15.24
2018-10-17T07:33:34.882Z,15.27
2018-10-17T07:34:15.450Z,15.18
2018-10-17T07:34:56.003Z,15.19
2018-10-17T07:35:36.637Z,15.17
2018-10-17T07:36:17.273Z,15.24
2018-10-17T07:36:57.766Z,15.25
2018-10-17T07:37:38.355Z,15.37
2018-10-17T07:38:18.951Z,15.49
2018-10-17T07:38:59.502Z,15.59
2018-10-17T07:39:40.059Z,15.73
2018-10-17T07:40:21.350Z,15.88
2018-10-17T07:41:02.018Z,15.98
2018-10-17T07:41:42.602Z,16.05
2018-10-17T07:42:23.178Z,16.28
2018-10-17T07:43:03.737Z,16.43
2018-10-17T07:43:44.415Z,16.68
2018-10-17T07:44:24.983Z,16.64
2018-10-17T07:45:05.579Z,16.79
2018-10-17T07:45:46.258Z,17.09
2018-10-17T07:46:26.767Z,17.27
2018-10-17T07:47:07.312Z,17.36
2018-10-17T07:47:47.908Z,17.44
2018-10-17T07:48:28.595Z,17.71
2018-10-17T07:49:09.195Z,17.86
2018-10-17T07:49:49.750Z,18.03
2018-10-17T07:50:30.309Z,18.26
2018-10-17T07:51:10.876Z,18.47
2018-10-17T07:51:51.499Z,18.53
2018-10-17T07:52:32.088Z,18.71
2018-10-17T07:53:12.828Z,18.9
2018-10-17T07:53:53.259Z,19.02
2018-10-17T07:54:33.798Z,19.22
2018-10-17T07:55:14.392Z,19.36
2018-10-17T07:55:55.340Z,19.48
2018-10-17T07:56:35.931Z,19.62
2018-10-17T07:57:16.491Z,19.63
2018-10-17T07:57:57.073Z,19.66
2018-10-17T07:58:37.636Z,19.82
2018-10-17T07:59:18.224Z,19.76
2018-10-17T07:59:58.819Z,19.79
2018-10-17T08:00:39.371Z,19.89
2018-10-17T08:01:19.923Z,19.86
2018-10-17T08:02:00.500Z,19.89
2018-10-17T08:02:41.166Z,20.11
2018-10-17T08:03:21.755Z,20.07
2018-10-17T08:04:02.327Z,20.13
2018-10-17T08:04:42.924Z,20.22
2018-10-17T08:05:23.507Z,20.19
2018-10-17T08:06:04.099Z,20.22
2018-10-17T08:06:44.952Z,20.29
2018-10-17T08:07:25.394Z,20.29
2018-10-17T08:08:05.954Z,20.4
2018-10-17T08:08:46.514Z,20.43
2018-10-17T08:09:27.124Z,20.5
2018-10-17T08:10:07.764Z,20.43
2018-10-17T08:10:48.267Z,20.4
2018-10-17T08:11:28.836Z,20.43
2018-10-17T08:12:09.524Z,20.48
2018-10-17T08:12:49.984Z,20.59
2018-10-17T08:13:30.549Z,20.66
2018-10-17T08:14:11.178Z,20.69
2018-10-17T08:14:51.773Z,20.74
2018-10-17T08:15:32.362Z,20.74
2018-10-17T08:16:12.934Z,20.72
2018-10-17T08:16:53.518Z,20.78
2018-10-17T08:17:34.097Z,20.84
2018-10-17T08:18:14.835Z,20.84
2018-10-17T08:18:55.264Z,20.84
2018-10-17T08:19:35.823Z,20.9
2018-10-17T08:20:16.596Z,20.84
2018-10-17T08:20:58.460Z,20.85
2018-10-17T08:21:39.504Z,20.95
2018-10-17T08:22:20.205Z,21.06
2018-10-17T08:23:00.801Z,21.12
2018-10-17T08:23:41.370Z,21.15
2018-10-17T08:24:21.939Z,21.17
2018-10-17T08:25:02.519Z,21.25
2018-10-17T08:25:43.112Z,21.32
2018-10-17T08:26:23.693Z,21.42
2018-10-17T08:27:04.248Z,21.45
2018-10-17T08:27:44.832Z,21.5
2018-10-17T08:28:25.406Z,21.46
2018-10-17T08:29:06.016Z,21.48
2018-10-17T08:29:46.602Z,21.54
2018-10-17T08:30:27.183Z,21.5
2018-10-17T08:31:07.739Z,21.37
2018-10-17T08:31:48.313Z,21.27
2018-10-17T08:32:28.871Z,21.18
2018-10-17T08:33:09.457Z,21.12
2018-10-17T08:33:50.027Z,21.11
2018-10-17T08:34:30.594Z,20.9
2018-10-17T08:35:11.187Z,20.85
2018-10-17T08:35:51.930Z,20.72
2018-10-17T08:36:32.554Z,20.67
2018-10-17T08:37:13.220Z,20.55
2018-10-17T08:37:53.889Z,20.48
2018-10-17T08:38:34.052Z,20.43
2018-10-17T08:39:14.615Z,20.31
2018-10-17T08:39:55.204Z,20.25
2018-10-17T08:40:36.029Z,20.25
2018-10-17T08:41:16.701Z,20.07
2018-10-17T08:41:57.196Z,19.96
2018-10-17T08:42:37.783Z,20.02
2018-10-17T08:43:18.476Z,19.92
2018-10-17T08:43:59.908Z,19.92
2018-10-17T08:44:40.430Z,19.88
2018-10-17T08:45:21.135Z,19.79